sensor_id;sensor_type;location;lat;lon;timestamp;pressure;altitude;pressure_sealevel;temperature;humidity
47636;BME280;33364;50.766;15.338;2023-09-08T00:01:01;95842.16;;;14.22;77.61
47636;BME280;33364;50.766;15.338;2023-09-08T00:03:31;95840.81;;;14.25;76.46
47636;BME280;33364;50.766;15.338;2023-09-08T00:05:56;95834.84;;;14.14;76.94
47636;BME280;33364;50.766;15.338;2023-09-08T00:08:22;95845.13;;;14.21;76.87
47636;BME280;33364;50.766;15.338;2023-09-08T00:10:49;95843.47;;;14.06;77.20
47636;BME280;33364;50.766;15.338;2023-09-08T00:13:15;95836.78;;;13.90;77.59
47636;BME280;33364;50.766;15.338;2023-09-08T00:15:40;95843.38;;;13.92;78.52
47636;BME280;33364;50.766;15.338;2023-09-08T00:18:06;95838.31;;;13.91;78.17
47636;BME280;33364;50.766;15.338;2023-09-08T00:20:32;95839.56;;;13.99;78.45
47636;BME280;33364;50.766;15.338;2023-09-08T00:22:58;95836.31;;;13.83;78.45
47636;BME280;33364;50.766;15.338;2023-09-08T00:25:23;95837.84;;;13.89;78.82
47636;BME280;33364;50.766;15.338;2023-09-08T00:27:49;95836.94;;;13.75;79.25
47636;BME280;33364;50.766;15.338;2023-09-08T00:30:15;95831.00;;;13.83;78.65
47636;BME280;33364;50.766;15.338;2023-09-08T00:32:41;95834.00;;;13.76;78.75
47636;BME280;33364;50.766;15.338;2023-09-08T00:35:06;95828.13;;;13.79;79.57
47636;BME280;33364;50.766;15.338;2023-09-08T00:37:33;95825.91;;;13.86;79.38
47636;BME280;33364;50.766;15.338;2023-09-08T00:39:59;95832.81;;;13.87;78.83
47636;BME280;33364;50.766;15.338;2023-09-08T00:42:25;95828.41;;;13.78;78.91
47636;BME280;33364;50.766;15.338;2023-09-08T00:44:50;95833.31;;;13.66;79.20
47636;BME280;33364;50.766;15.338;2023-09-08T00:47:17;95840.09;;;13.77;79.47
47636;BME280;33364;50.766;15.338;2023-09-08T00:49:43;95833.31;;;13.89;78.75
47636;BME280;33364;50.766;15.338;2023-09-08T00:52:09;95844.69;;;13.95;78.81
47636;BME280;33364;50.766;15.338;2023-09-08T00:54:34;95844.28;;;13.83;78.53
47636;BME280;33364;50.766;15.338;2023-09-08T00:57:02;95844.34;;;13.78;78.73
47636;BME280;33364;50.766;15.338;2023-09-08T00:59:32;95847.91;;;13.68;79.20
47636;BME280;33364;50.766;15.338;2023-09-08T01:01:59;95843.09;;;13.70;78.95
47636;BME280;33364;50.766;15.338;2023-09-08T01:04:24;95842.41;;;13.60;79.45
47636;BME280;33364;50.766;15.338;2023-09-08T01:06:50;95845.06;;;13.60;79.36
47636;BME280;33364;50.766;15.338;2023-09-08T01:09:17;95845.84;;;13.60;79.35
47636;BME280;33364;50.766;15.338;2023-09-08T01:11:44;95840.75;;;13.69;78.75
47636;BME280;33364;50.766;15.338;2023-09-08T01:14:13;95849.47;;;13.45;79.20
47636;BME280;33364;50.766;15.338;2023-09-08T01:16:39;95844.75;;;13.42;79.55
47636;BME280;33364;50.766;15.338;2023-09-08T01:19:13;95850.63;;;13.34;79.42
47636;BME280;33364;50.766;15.338;2023-09-08T01:25:02;95835.28;;;13.31;79.09
47636;BME280;33364;50.766;15.338;2023-09-08T01:27:32;95845.44;;;13.24;79.43
47636;BME280;33364;50.766;15.338;2023-09-08T01:29:59;95842.09;;;13.14;79.34
47636;BME280;33364;50.766;15.338;2023-09-08T01:32:29;95837.63;;;13.04;79.80
47636;BME280;33364;50.766;15.338;2023-09-08T01:34:57;95840.25;;;13.09;80.18
47636;BME280;33364;50.766;15.338;2023-09-08T01:37:23;95839.06;;;13.25;79.32
47636;BME280;33364;50.766;15.338;2023-09-08T01:39:49;95839.16;;;13.15;79.02
47636;BME280;33364;50.766;15.338;2023-09-08T01:42:15;95838.13;;;13.06;79.74
47636;BME280;33364;50.766;15.338;2023-09-08T01:44:41;95832.38;;;12.99;79.56
47636;BME280;33364;50.766;15.338;2023-09-08T01:47:06;95832.91;;;12.96;79.93
47636;BME280;33364;50.766;15.338;2023-09-08T01:49:32;95830.69;;;13.08;79.75
47636;BME280;33364;50.766;15.338;2023-09-08T01:51:58;95834.88;;;13.19;79.93
47636;BME280;33364;50.766;15.338;2023-09-08T01:54:24;95826.03;;;13.29;79.00
47636;BME280;33364;50.766;15.338;2023-09-08T01:56:50;95821.00;;;13.27;78.06
47636;BME280;33364;50.766;15.338;2023-09-08T01:59:16;95819.38;;;13.31;78.22
47636;BME280;33364;50.766;15.338;2023-09-08T02:01:42;95820.06;;;13.13;78.66
47636;BME280;33364;50.766;15.338;2023-09-08T02:04:08;95824.19;;;12.95;79.30
47636;BME280;33364;50.766;15.338;2023-09-08T02:06:34;95828.81;;;12.80;79.60
47636;BME280;33364;50.766;15.338;2023-09-08T02:08:59;95822.97;;;12.83;80.01
47636;BME280;33364;50.766;15.338;2023-09-08T02:11:25;95818.25;;;12.75;80.14
47636;BME280;33364;50.766;15.338;2023-09-08T02:13:51;95813.53;;;12.72;80.31
47636;BME280;33364;50.766;15.338;2023-09-08T02:16:17;95816.22;;;12.66;80.50
47636;BME280;33364;50.766;15.338;2023-09-08T02:18:44;95815.63;;;12.69;80.08
47636;BME280;33364;50.766;15.338;2023-09-08T02:21:11;95805.03;;;12.69;80.44
47636;BME280;33364;50.766;15.338;2023-09-08T02:23:37;95814.28;;;12.77;79.82
47636;BME280;33364;50.766;15.338;2023-09-08T02:26:03;95823.56;;;12.75;79.95
47636;BME280;33364;50.766;15.338;2023-09-08T02:28:29;95816.66;;;12.79;79.91
47636;BME280;33364;50.766;15.338;2023-09-08T02:30:55;95812.81;;;12.95;79.61
47636;BME280;33364;50.766;15.338;2023-09-08T02:33:20;95814.38;;;12.96;78.86
47636;BME280;33364;50.766;15.338;2023-09-08T02:35:46;95808.31;;;12.90;78.88
47636;BME280;33364;50.766;15.338;2023-09-08T02:38:12;95800.69;;;12.84;78.86
47636;BME280;33364;50.766;15.338;2023-09-08T02:40:38;95806.72;;;12.60;79.92
47636;BME280;33364;50.766;15.338;2023-09-08T02:43:04;95808.09;;;12.53;80.33
47636;BME280;33364;50.766;15.338;2023-09-08T02:45:30;95801.50;;;12.50;80.16
47636;BME280;33364;50.766;15.338;2023-09-08T02:47:55;95807.88;;;12.44;80.57
47636;BME280;33364;50.766;15.338;2023-09-08T02:50:21;95804.78;;;12.37;80.76
47636;BME280;33364;50.766;15.338;2023-09-08T02:52:47;95808.94;;;12.43;80.86
47636;BME280;33364;50.766;15.338;2023-09-08T02:55:14;95804.75;;;12.42;80.94
47636;BME280;33364;50.766;15.338;2023-09-08T02:57:39;95804.66;;;12.52;80.35
47636;BME280;33364;50.766;15.338;2023-09-08T03:00:06;95806.75;;;12.55;80.33
47636;BME280;33364;50.766;15.338;2023-09-08T03:02:33;95801.97;;;12.57;79.34
47636;BME280;33364;50.766;15.338;2023-09-08T03:04:59;95805.38;;;12.63;79.93
47636;BME280;33364;50.766;15.338;2023-09-08T03:07:26;95802.50;;;12.54;79.32
47636;BME280;33364;50.766;15.338;2023-09-08T03:09:53;95808.13;;;12.48;79.29
47636;BME280;33364;50.766;15.338;2023-09-08T03:12:18;95800.53;;;12.36;79.65
47636;BME280;33364;50.766;15.338;2023-09-08T03:14:44;95804.31;;;12.25;80.45
47636;BME280;33364;50.766;15.338;2023-09-08T03:17:11;95805.13;;;12.25;80.76
47636;BME280;33364;50.766;15.338;2023-09-08T03:19:38;95810.09;;;12.32;80.77
47636;BME280;33364;50.766;15.338;2023-09-08T03:22:04;95803.47;;;12.35;80.21
47636;BME280;33364;50.766;15.338;2023-09-08T03:24:30;95800.06;;;12.29;80.32
47636;BME280;33364;50.766;15.338;2023-09-08T03:26:55;95811.66;;;12.33;79.94
47636;BME280;33364;50.766;15.338;2023-09-08T03:29:23;95804.31;;;12.25;80.36
47636;BME280;33364;50.766;15.338;2023-09-08T03:31:49;95800.06;;;12.29;80.04
47636;BME280;33364;50.766;15.338;2023-09-08T03:34:15;95803.53;;;12.24;80.55
47636;BME280;33364;50.766;15.338;2023-09-08T03:36:40;95803.28;;;12.21;80.64
47636;BME280;33364;50.766;15.338;2023-09-08T03:39:06;95799.63;;;12.12;81.22
47636;BME280;33364;50.766;15.338;2023-09-08T03:41:34;95799.63;;;12.12;81.15
47636;BME280;33364;50.766;15.338;2023-09-08T03:44:00;95804.91;;;12.12;80.66
47636;BME280;33364;50.766;15.338;2023-09-08T03:46:26;95795.34;;;12.21;80.86
47636;BME280;33364;50.766;15.338;2023-09-08T03:48:52;95799.06;;;12.20;80.30
47636;BME280;33364;50.766;15.338;2023-09-08T03:51:19;95807.00;;;12.20;80.81
47636;BME280;33364;50.766;15.338;2023-09-08T03:53:45;95800.69;;;12.16;81.03
47636;BME280;33364;50.766;15.338;2023-09-08T03:56:11;95798.47;;;12.28;80.37
47636;BME280;33364;50.766;15.338;2023-09-08T03:58:37;95793.09;;;12.38;79.88
47636;BME280;33364;50.766;15.338;2023-09-08T04:01:02;95794.19;;;12.37;79.51
47636;BME280;33364;50.766;15.338;2023-09-08T04:03:28;95795.69;;;12.43;79.59
47636;BME280;33364;50.766;15.338;2023-09-08T04:05:54;95785.91;;;12.44;79.25
47636;BME280;33364;50.766;15.338;2023-09-08T04:08:20;95782.19;;;12.45;79.33
47636;BME280;33364;50.766;15.338;2023-09-08T04:10:45;95783.75;;;12.51;78.75
47636;BME280;33364;50.766;15.338;2023-09-08T04:13:11;95788.28;;;12.45;78.67
47636;BME280;33364;50.766;15.338;2023-09-08T04:15:37;95785.28;;;12.57;78.48
47636;BME280;33364;50.766;15.338;2023-09-08T04:18:02;95787.63;;;12.58;78.31
47636;BME280;33364;50.766;15.338;2023-09-08T04:20:28;95784.72;;;12.60;78.43
47636;BME280;33364;50.766;15.338;2023-09-08T04:22:54;95782.06;;;12.60;78.35
47636;BME280;33364;50.766;15.338;2023-09-08T04:25:19;95789.25;;;12.54;78.29
47636;BME280;33364;50.766;15.338;2023-09-08T04:27:45;95789.88;;;12.46;79.15
47636;BME280;33364;50.766;15.338;2023-09-08T04:30:12;95789.34;;;12.44;79.00
47636;BME280;33364;50.766;15.338;2023-09-08T04:32:38;95791.47;;;12.47;79.05
47636;BME280;33364;50.766;15.338;2023-09-08T04:35:05;95780.81;;;12.52;78.86
47636;BME280;33364;50.766;15.338;2023-09-08T04:37:31;95792.78;;;12.45;78.73
47636;BME280;33364;50.766;15.338;2023-09-08T04:39:56;95785.59;;;12.50;78.50
47636;BME280;33364;50.766;15.338;2023-09-08T04:42:22;95794.88;;;12.48;78.68
47636;BME280;33364;50.766;15.338;2023-09-08T04:44:48;95792.06;;;12.34;78.86
47636;BME280;33364;50.766;15.338;2023-09-08T04:47:14;95786.47;;;12.41;79.16
47636;BME280;33364;50.766;15.338;2023-09-08T04:49:40;95788.31;;;12.40;78.47
47636;BME280;33364;50.766;15.338;2023-09-08T04:52:06;95787.50;;;12.45;79.02
47636;BME280;33364;50.766;15.338;2023-09-08T04:54:31;95780.56;;;12.49;78.96
47636;BME280;33364;50.766;15.338;2023-09-08T04:56:58;95781.47;;;12.34;78.99
47636;BME280;33364;50.766;15.338;2023-09-08T04:59:24;95789.22;;;12.25;79.70
47636;BME280;33364;50.766;15.338;2023-09-08T05:01:50;95791.09;;;12.25;80.03
47636;BME280;33364;50.766;15.338;2023-09-08T05:04:17;95788.69;;;12.23;79.71
47636;BME280;33364;50.766;15.338;2023-09-08T05:06:43;95792.16;;;12.19;80.10
47636;BME280;33364;50.766;15.338;2023-09-08T05:09:08;95789.00;;;12.17;80.16
47636;BME280;33364;50.766;15.338;2023-09-08T05:11:34;95792.13;;;12.24;80.22
47636;BME280;33364;50.766;15.338;2023-09-08T05:14:00;95790.56;;;12.23;79.87
47636;BME280;33364;50.766;15.338;2023-09-08T05:16:26;95788.44;;;12.25;79.59
47636;BME280;33364;50.766;15.338;2023-09-08T05:19:03;95785.25;;;12.23;80.09
47636;BME280;33364;50.766;15.338;2023-09-08T05:21:33;95797.38;;;12.34;79.96
47636;BME280;33364;50.766;15.338;2023-09-08T05:23:59;95786.78;;;12.34;79.89
47636;BME280;33364;50.766;15.338;2023-09-08T05:26:25;95797.00;;;12.51;79.55
47636;BME280;33364;50.766;15.338;2023-09-08T05:28:50;95797.75;;;12.56;79.22
47636;BME280;33364;50.766;15.338;2023-09-08T05:31:16;95801.19;;;12.57;78.48
47636;BME280;33364;50.766;15.338;2023-09-08T05:33:42;95797.22;;;12.54;79.31
47636;BME280;33364;50.766;15.338;2023-09-08T05:36:08;95803.28;;;12.60;78.49
47636;BME280;33364;50.766;15.338;2023-09-08T05:38:34;95797.66;;;12.66;78.87
47636;BME280;33364;50.766;15.338;2023-09-08T05:40:59;95803.53;;;12.63;79.22
47636;BME280;33364;50.766;15.338;2023-09-08T05:43:25;95806.19;;;12.63;79.05
47636;BME280;33364;50.766;15.338;2023-09-08T05:45:51;95804.06;;;12.60;79.64
47636;BME280;33364;50.766;15.338;2023-09-08T05:48:17;95809.94;;;12.57;79.21
47636;BME280;33364;50.766;15.338;2023-09-08T05:50:43;95806.72;;;12.60;79.19
47636;BME280;33364;50.766;15.338;2023-09-08T05:53:08;95800.31;;;12.66;79.43
47636;BME280;33364;50.766;15.338;2023-09-08T05:55:34;95804.50;;;12.73;79.95
47636;BME280;33364;50.766;15.338;2023-09-08T05:57:59;95803.44;;;12.74;79.69
47636;BME280;33364;50.766;15.338;2023-09-08T06:00:25;95804.38;;;12.88;79.64
47636;BME280;33364;50.766;15.338;2023-09-08T06:02:51;95801.06;;;13.01;79.25
47636;BME280;33364;50.766;15.338;2023-09-08T06:05:18;95801.53;;;13.08;79.13
47636;BME280;33364;50.766;15.338;2023-09-08T06:07:43;95797.69;;;13.24;79.07
47636;BME280;33364;50.766;15.338;2023-09-08T06:10:09;95801.31;;;13.33;79.06
47636;BME280;33364;50.766;15.338;2023-09-08T06:12:35;95802.88;;;13.34;78.99
47636;BME280;33364;50.766;15.338;2023-09-08T06:15:04;95800.13;;;13.44;78.97
47636;BME280;33364;50.766;15.338;2023-09-08T06:17:30;95794.50;;;13.70;78.58
47636;BME280;33364;50.766;15.338;2023-09-08T06:19:56;95791.97;;;13.83;77.85
47636;BME280;33364;50.766;15.338;2023-09-08T06:22:22;95791.50;;;14.00;77.49
47636;BME280;33364;50.766;15.338;2023-09-08T06:24:47;95793.44;;;14.13;77.51
47636;BME280;33364;50.766;15.338;2023-09-08T06:27:16;95791.13;;;14.25;77.40
47636;BME280;33364;50.766;15.338;2023-09-08T06:29:42;95788.91;;;14.32;77.20
47636;BME280;33364;50.766;15.338;2023-09-08T06:32:10;95793.31;;;14.42;76.91
47636;BME280;33364;50.766;15.338;2023-09-08T06:34:35;95791.53;;;14.70;76.71
47636;BME280;33364;50.766;15.338;2023-09-08T06:37:02;95789.38;;;14.91;76.75
47636;BME280;33364;50.766;15.338;2023-09-08T06:39:27;95783.38;;;15.12;76.57
47636;BME280;33364;50.766;15.338;2023-09-08T06:41:54;95776.59;;;15.34;75.31
47636;BME280;33364;50.766;15.338;2023-09-08T06:44:20;95784.25;;;15.54;75.27
47636;BME280;33364;50.766;15.338;2023-09-08T06:46:46;95778.53;;;15.74;74.58
47636;BME280;33364;50.766;15.338;2023-09-08T06:49:12;95779.69;;;15.95;74.39
47636;BME280;33364;50.766;15.338;2023-09-08T06:51:38;95776.56;;;16.16;74.44
47636;BME280;33364;50.766;15.338;2023-09-08T06:54:04;95778.66;;;16.41;73.55
47636;BME280;33364;50.766;15.338;2023-09-08T06:56:30;95780.16;;;16.69;73.25
47636;BME280;33364;50.766;15.338;2023-09-08T06:58:56;95782.81;;;16.92;73.23
47636;BME280;33364;50.766;15.338;2023-09-08T07:01:24;95780.56;;;17.07;72.17
47636;BME280;33364;50.766;15.338;2023-09-08T07:03:49;95777.09;;;17.38;73.28
47636;BME280;33364;50.766;15.338;2023-09-08T07:06:16;95777.31;;;17.58;72.64
47636;BME280;33364;50.766;15.338;2023-09-08T07:08:41;95778.03;;;17.72;71.59
47636;BME280;33364;50.766;15.338;2023-09-08T07:11:07;95785.16;;;17.94;72.13
47636;BME280;33364;50.766;15.338;2023-09-08T07:13:34;95788.34;;;18.13;70.71
47636;BME280;33364;50.766;15.338;2023-09-08T07:16:00;95789.78;;;18.37;70.28
47636;BME280;33364;50.766;15.338;2023-09-08T07:18:25;95792.94;;;18.56;70.62
47636;BME280;33364;50.766;15.338;2023-09-08T07:20:51;95793.88;;;18.77;70.62
47636;BME280;33364;50.766;15.338;2023-09-08T07:23:17;95789.78;;;18.97;70.58
47636;BME280;33364;50.766;15.338;2023-09-08T07:25:49;95793.66;;;19.17;69.37
47636;BME280;33364;50.766;15.338;2023-09-08T07:28:16;95792.03;;;19.33;69.61
47636;BME280;33364;50.766;15.338;2023-09-08T07:30:43;95788.94;;;19.69;68.39
47636;BME280;33364;50.766;15.338;2023-09-08T07:33:08;95782.09;;;19.80;67.00
47636;BME280;33364;50.766;15.338;2023-09-08T07:35:38;95782.06;;;20.09;67.36
47636;BME280;33364;50.766;15.338;2023-09-08T07:38:05;95782.41;;;20.37;66.50
47636;BME280;33364;50.766;15.338;2023-09-08T07:40:34;95790.03;;;20.68;64.71
47636;BME280;33364;50.766;15.338;2023-09-08T07:43:01;95791.19;;;20.67;66.53
47636;BME280;33364;50.766;15.338;2023-09-08T07:45:27;95789.09;;;20.85;65.67
47636;BME280;33364;50.766;15.338;2023-09-08T07:47:53;95794.44;;;21.05;67.13
47636;BME280;33364;50.766;15.338;2023-09-08T07:50:25;95791.88;;;21.42;64.67
47636;BME280;33364;50.766;15.338;2023-09-08T07:52:55;95787.63;;;21.89;55.65
47636;BME280;33364;50.766;15.338;2023-09-08T07:55:22;95792.34;;;21.80;57.99
47636;BME280;33364;50.766;15.338;2023-09-08T07:57:49;95785.19;;;22.21;54.78
47636;BME280;33364;50.766;15.338;2023-09-08T08:00:16;95791.41;;;22.49;54.73
47636;BME280;33364;50.766;15.338;2023-09-08T08:02:47;95790.75;;;22.52;56.29
47636;BME280;33364;50.766;15.338;2023-09-08T08:05:13;95794.06;;;22.73;56.48
47636;BME280;33364;50.766;15.338;2023-09-08T08:07:39;95793.50;;;22.96;55.55
47636;BME280;33364;50.766;15.338;2023-09-08T08:10:06;95795.66;;;23.18;54.04
47636;BME280;33364;50.766;15.338;2023-09-08T08:12:32;95790.66;;;23.48;54.75
47636;BME280;33364;50.766;15.338;2023-09-08T08:14:58;95794.94;;;23.49;54.57
47636;BME280;33364;50.766;15.338;2023-09-08T08:17:26;95791.38;;;23.61;53.16
47636;BME280;33364;50.766;15.338;2023-09-08T08:19:54;95790.03;;;23.39;54.16
47636;BME280;33364;50.766;15.338;2023-09-08T08:22:19;95786.84;;;23.80;52.40
47636;BME280;33364;50.766;15.338;2023-09-08T08:24:46;95788.66;;;24.08;52.00
47636;BME280;33364;50.766;15.338;2023-09-08T08:27:11;95782.16;;;23.93;51.61
47636;BME280;33364;50.766;15.338;2023-09-08T08:29:38;95789.25;;;24.01;51.74
47636;BME280;33364;50.766;15.338;2023-09-08T08:32:05;95783.28;;;24.43;52.12
47636;BME280;33364;50.766;15.338;2023-09-08T08:34:31;95779.66;;;24.54;49.14
47636;BME280;33364;50.766;15.338;2023-09-08T08:36:56;95781.47;;;25.04;50.68
47636;BME280;33364;50.766;15.338;2023-09-08T08:39:22;95784.59;;;24.68;49.66
47636;BME280;33364;50.766;15.338;2023-09-08T08:41:48;95777.53;;;24.82;49.31
47636;BME280;33364;50.766;15.338;2023-09-08T08:44:15;95775.19;;;25.19;50.36
47636;BME280;33364;50.766;15.338;2023-09-08T08:46:43;95776.19;;;25.53;48.80
47636;BME280;33364;50.766;15.338;2023-09-08T08:49:11;95775.34;;;25.07;49.06
47636;BME280;33364;50.766;15.338;2023-09-08T08:51:38;95772.69;;;25.76;50.04
47636;BME280;33364;50.766;15.338;2023-09-08T08:54:05;95772.78;;;25.79;49.04
47636;BME280;33364;50.766;15.338;2023-09-08T08:56:31;95771.38;;;26.15;45.35
47636;BME280;33364;50.766;15.338;2023-09-08T08:59:00;95766.31;;;25.87;45.55
47636;BME280;33364;50.766;15.338;2023-09-08T09:01:26;95776.91;;;25.08;47.10
47636;BME280;33364;50.766;15.338;2023-09-08T09:03:52;95771.03;;;25.68;45.47
47636;BME280;33364;50.766;15.338;2023-09-08T09:06:18;95771.19;;;26.01;48.23
47636;BME280;33364;50.766;15.338;2023-09-08T09:08:44;95770.97;;;26.39;45.20
47636;BME280;33364;50.766;15.338;2023-09-08T09:11:11;95768.50;;;26.04;43.94
47636;BME280;33364;50.766;15.338;2023-09-08T09:13:37;95766.47;;;25.98;42.85
47636;BME280;33364;50.766;15.338;2023-09-08T09:16:03;95772.06;;;25.86;43.88
47636;BME280;33364;50.766;15.338;2023-09-08T09:18:30;95766.50;;;26.24;44.56
47636;BME280;33364;50.766;15.338;2023-09-08T09:20:58;95769.00;;;26.66;43.04
47636;BME280;33364;50.766;15.338;2023-09-08T09:23:32;95766.47;;;26.80;41.50
47636;BME280;33364;50.766;15.338;2023-09-08T09:25:59;95772.97;;;27.06;43.07
47636;BME280;33364;50.766;15.338;2023-09-08T09:28:28;95765.22;;;27.08;41.86
47636;BME280;33364;50.766;15.338;2023-09-08T09:30:53;95771.50;;;27.12;41.06
47636;BME280;33364;50.766;15.338;2023-09-08T09:33:22;95771.13;;;26.83;41.90
47636;BME280;33364;50.766;15.338;2023-09-08T09:35:53;95772.06;;;26.95;42.66
47636;BME280;33364;50.766;15.338;2023-09-08T09:38:20;95777.63;;;27.05;43.88
47636;BME280;33364;50.766;15.338;2023-09-08T09:40:47;95777.13;;;27.33;38.62
47636;BME280;33364;50.766;15.338;2023-09-08T09:43:15;95769.53;;;27.49;39.43
47636;BME280;33364;50.766;15.338;2023-09-08T09:45:42;95776.81;;;27.42;39.76
47636;BME280;33364;50.766;15.338;2023-09-08T09:48:09;95771.22;;;27.24;39.17
47636;BME280;33364;50.766;15.338;2023-09-08T09:50:40;95778.72;;;27.78;41.04
47636;BME280;33364;50.766;15.338;2023-09-08T09:53:11;95770.91;;;27.69;38.77
47636;BME280;33364;50.766;15.338;2023-09-08T09:55:38;95780.03;;;27.14;39.77
47636;BME280;33364;50.766;15.338;2023-09-08T09:58:05;95769.00;;;27.77;39.45
47636;BME280;33364;50.766;15.338;2023-09-08T10:00:31;95775.66;;;27.80;38.29
47636;BME280;33364;50.766;15.338;2023-09-08T10:03:01;95765.13;;;27.75;36.06
47636;BME280;33364;50.766;15.338;2023-09-08T10:05:27;95759.56;;;27.60;39.09
47636;BME280;33364;50.766;15.338;2023-09-08T10:07:53;95757.97;;;28.03;41.04
47636;BME280;33364;50.766;15.338;2023-09-08T10:10:20;95756.56;;;28.24;38.18
47636;BME280;33364;50.766;15.338;2023-09-08T10:12:52;95753.03;;;28.16;38.46
47636;BME280;33364;50.766;15.338;2023-09-08T10:15:20;95757.53;;;27.98;35.38
47636;BME280;33364;50.766;15.338;2023-09-08T10:17:56;95755.94;;;27.90;37.50
47636;BME280;33364;50.766;15.338;2023-09-08T10:20:27;95757.44;;;27.80;38.32
47636;BME280;33364;50.766;15.338;2023-09-08T10:25:35;95748.09;;;28.29;38.75
47636;BME280;33364;50.766;15.338;2023-09-08T10:28:03;95744.59;;;28.35;35.43
47636;BME280;33364;50.766;15.338;2023-09-08T10:30:30;95742.66;;;28.32;34.20
47636;BME280;33364;50.766;15.338;2023-09-08T10:32:58;95738.44;;;28.45;34.17
47636;BME280;33364;50.766;15.338;2023-09-08T10:35:24;95729.19;;;28.53;35.47
47636;BME280;33364;50.766;15.338;2023-09-08T10:37:50;95730.75;;;28.62;35.49
47636;BME280;33364;50.766;15.338;2023-09-08T10:40:23;95742.72;;;27.85;35.27
47636;BME280;33364;50.766;15.338;2023-09-08T10:43:06;95738.69;;;28.19;35.55
47636;BME280;33364;50.766;15.338;2023-09-08T10:45:31;95736.59;;;27.98;33.43
47636;BME280;33364;50.766;15.338;2023-09-08T10:47:58;95738.44;;;28.42;33.01
47636;BME280;33364;50.766;15.338;2023-09-08T10:50:30;95731.50;;;28.51;33.87
47636;BME280;33364;50.766;15.338;2023-09-08T10:53:16;95720.66;;;28.55;34.04
47636;BME280;33364;50.766;15.338;2023-09-08T10:55:47;95712.09;;;28.56;35.93
47636;BME280;33364;50.766;15.338;2023-09-08T10:58:37;95723.88;;;28.82;35.08
47636;BME280;33364;50.766;15.338;2023-09-08T11:01:04;95737.13;;;28.87;36.78
47636;BME280;33364;50.766;15.338;2023-09-08T11:06:03;95731.91;;;27.92;34.66
47636;BME280;33364;50.766;15.338;2023-09-08T11:08:29;95725.47;;;28.86;33.99
47636;BME280;33364;50.766;15.338;2023-09-08T11:10:55;95723.91;;;29.03;35.65
47636;BME280;33364;50.766;15.338;2023-09-08T11:13:21;95725.47;;;28.97;33.17
47636;BME280;33364;50.766;15.338;2023-09-08T11:15:47;95723.53;;;28.87;34.06
47636;BME280;33364;50.766;15.338;2023-09-08T11:18:13;95716.53;;;29.00;32.89
47636;BME280;33364;50.766;15.338;2023-09-08T11:20:38;95717.59;;;28.71;32.05
47636;BME280;33364;50.766;15.338;2023-09-08T11:23:04;95716.59;;;28.17;30.95
47636;BME280;33364;50.766;15.338;2023-09-08T11:25:32;95714.00;;;28.45;31.68
47636;BME280;33364;50.766;15.338;2023-09-08T11:27:59;95720.63;;;27.86;31.36
47636;BME280;33364;50.766;15.338;2023-09-08T11:30:26;95718.41;;;28.75;32.30
47636;BME280;33364;50.766;15.338;2023-09-08T11:32:52;95717.84;;;28.41;31.34
47636;BME280;33364;50.766;15.338;2023-09-08T11:35:17;95721.41;;;28.55;31.30
47636;BME280;33364;50.766;15.338;2023-09-08T11:37:46;95712.66;;;28.87;31.05
47636;BME280;33364;50.766;15.338;2023-09-08T11:40:12;95712.66;;;29.08;31.92
47636;BME280;33364;50.766;15.338;2023-09-08T11:42:40;95710.78;;;29.23;33.91
47636;BME280;33364;50.766;15.338;2023-09-08T11:45:16;95707.63;;;29.24;30.66
47636;BME280;33364;50.766;15.338;2023-09-08T11:47:49;95706.84;;;29.03;31.53
47636;BME280;33364;50.766;15.338;2023-09-08T11:50:15;95706.91;;;29.38;32.38
47636;BME280;33364;50.766;15.338;2023-09-08T11:52:45;95713.47;;;29.26;31.14
47636;BME280;33364;50.766;15.338;2023-09-08T11:55:12;95705.91;;;28.60;32.53
47636;BME280;33364;50.766;15.338;2023-09-08T11:57:40;95710.34;;;29.10;32.88
47636;BME280;33364;50.766;15.338;2023-09-08T12:00:07;95696.00;;;29.31;31.42
47636;BME280;33364;50.766;15.338;2023-09-08T12:02:38;95700.63;;;29.20;29.30
47636;BME280;33364;50.766;15.338;2023-09-08T12:05:04;95706.75;;;28.74;31.35
47636;BME280;33364;50.766;15.338;2023-09-08T12:07:30;95696.44;;;28.25;32.41
47636;BME280;33364;50.766;15.338;2023-09-08T12:09:56;95697.75;;;28.67;31.69
47636;BME280;33364;50.766;15.338;2023-09-08T12:12:25;95706.44;;;29.04;30.41
47636;BME280;33364;50.766;15.338;2023-09-08T12:14:52;95699.91;;;29.41;33.98
47636;BME280;33364;50.766;15.338;2023-09-08T12:17:18;95698.72;;;29.27;33.50
47636;BME280;33364;50.766;15.338;2023-09-08T12:19:43;95701.25;;;28.67;32.18
47636;BME280;33364;50.766;15.338;2023-09-08T12:22:09;95700.84;;;27.89;32.36
47636;BME280;33364;50.766;15.338;2023-09-08T12:24:48;95699.66;;;28.55;30.89
47636;BME280;33364;50.766;15.338;2023-09-08T12:27:18;95699.44;;;28.96;30.93
47636;BME280;33364;50.766;15.338;2023-09-08T12:30:00;95698.66;;;28.99;31.11
47636;BME280;33364;50.766;15.338;2023-09-08T12:32:30;95681.28;;;29.39;31.64
47636;BME280;33364;50.766;15.338;2023-09-08T12:37:23;95680.88;;;29.33;31.89
47636;BME280;33364;50.766;15.338;2023-09-08T12:39:49;95681.28;;;29.39;31.13
47636;BME280;33364;50.766;15.338;2023-09-08T12:42:15;95688.72;;;27.76;33.07
47636;BME280;33364;50.766;15.338;2023-09-08T12:44:41;95679.59;;;28.85;33.12
47636;BME280;33364;50.766;15.338;2023-09-08T12:47:09;95671.06;;;28.90;33.40
47636;BME280;33364;50.766;15.338;2023-09-08T12:49:35;95679.50;;;28.56;34.68
47636;BME280;33364;50.766;15.338;2023-09-08T12:52:01;95677.19;;;28.62;33.51
47636;BME280;33364;50.766;15.338;2023-09-08T12:54:26;95673.06;;;29.07;33.59
47636;BME280;33364;50.766;15.338;2023-09-08T12:56:52;95670.38;;;29.32;32.71
47636;BME280;33364;50.766;15.338;2023-09-08T12:59:18;95672.31;;;29.31;33.97